Time;durP1;ratioP1;P1;durP2;ratioP2;P2;SDS_P1;SDS_P2;PMS_P1;PMS_P2;Temp;Humidity;BMP_temperature;BMP_pressure;BME280_temperature;BME280_humidity;BME280_pressure;Samples;Min_cycle;Max_cycle;Signal;HPM_P1;HPM_P2
2023/09/15 00:04:40;;;;;;;;;;;22.80;55.30;;;;;;10409153;28;19933;-45
2023/09/15 00:09:42;;;;;;;;;;;22.80;55.20;;;;;;10395510;28;19985;-42
2023/09/15 00:14:44;;;;;;;;;;;22.80;55.30;;;;;;10390137;28;20020;-41
2023/09/15 00:19:46;;;;;;;;;;;22.70;55.40;;;;;;10392413;28;20025;-44
2023/09/15 00:24:48;;;;;;;;;;;22.70;55.10;;;;;;10390475;28;20516;-42
2023/09/15 00:29:49;;;;;;;;;;;22.70;55.20;;;;;;10386099;28;20348;-45
2023/09/15 00:34:51;;;;;;;;;;;22.70;56.10;;;;;;10400679;28;20279;-43
2023/09/15 00:39:53;;;;;;;;;;;22.70;55.30;;;;;;10399737;28;20381;-43
2023/09/15 00:44:55;;;;;;;;;;;22.70;55.30;;;;;;10397819;28;19933;-42
2023/09/15 00:49:57;;;;;;;;;;;22.70;55.30;;;;;;10393010;28;19934;-41
2023/09/15 00:54:59;;;;;;;;;;;22.70;55.30;;;;;;10376795;28;19933;-46
2023/09/15 01:00:02;;;;;;;;;;;22.70;55.30;;;;;;10392681;28;19937;-44
2023/09/15 01:05:04;;;;;;;;;;;22.70;55.10;;;;;;10385859;28;19940;-42
2023/09/15 01:10:07;;;;;;;;;;;22.70;55.10;;;;;;10394524;28;20458;-45
2023/09/15 01:15:09;;;;;;;;;;;22.70;55.10;;;;;;10400336;28;19934;-46
2023/09/15 01:20:15;;;;;;;;;;;22.60;54.90;;;;;;10402669;28;19933;-43
2023/09/15 01:25:23;;;;;;;;;;;22.70;54.90;;;;;;10396454;28;19940;-43
2023/09/15 01:30:25;;;;;;;;;;;22.60;54.80;;;;;;10406109;28;20024;-42
2023/09/15 01:35:27;;;;;;;;;;;22.60;54.90;;;;;;10415087;28;19934;-45
2023/09/15 01:40:30;;;;;;;;;;;22.60;54.70;;;;;;10402352;28;19940;-41
2023/09/15 01:45:32;;;;;;;;;;;22.60;54.60;;;;;;10406538;28;20027;-43
2023/09/15 01:50:34;;;;;;;;;;;22.60;54.60;;;;;;10392413;28;20020;-43
2023/09/15 01:55:36;;;;;;;;;;;22.60;54.60;;;;;;10394696;28;19933;-42
2023/09/15 02:00:37;;;;;;;;;;;22.60;54.60;;;;;;10391954;28;20347;-41
2023/09/15 02:05:39;;;;;;;;;;;22.60;54.50;;;;;;10395195;28;20417;-43
2023/09/15 02:10:41;;;;;;;;;;;22.60;54.50;;;;;;10398594;28;19933;-44
2023/09/15 02:15:42;;;;;;;;;;;22.60;54.60;;;;;;10406556;28;19940;-44
2023/09/15 02:20:52;;;;;;;;;;;22.50;54.40;;;;;;10384264;28;20113;-44
2023/09/15 02:25:54;;;;;;;;;;;22.50;54.50;;;;;;10407254;28;20425;-44
2023/09/15 02:30:55;;;;;;;;;;;22.50;54.50;;;;;;10403566;28;19953;-42
2023/09/15 02:35:58;;;;;;;;;;;22.50;54.50;;;;;;10392100;28;19934;-42
2023/09/15 02:40:59;;;;;;;;;;;22.50;54.40;;;;;;10391968;28;19933;-42
2023/09/15 02:46:02;;;;;;;;;;;22.50;54.40;;;;;;10390195;28;19934;-43
2023/09/15 02:51:04;;;;;;;;;;;22.50;54.40;;;;;;10392112;28;19934;-44
2023/09/15 02:56:05;;;;;;;;;;;22.50;54.50;;;;;;10390310;28;20472;-42
2023/09/15 03:01:13;;;;;;;;;;;22.50;54.40;;;;;;10382581;28;20148;-43
2023/09/15 03:06:16;;;;;;;;;;;22.40;54.20;;;;;;10393647;28;20408;-43
2023/09/15 03:11:18;;;;;;;;;;;22.40;54.40;;;;;;10391044;28;20064;-42
2023/09/15 03:16:20;;;;;;;;;;;22.40;54.40;;;;;;10391785;28;19940;-41
2023/09/15 03:21:22;;;;;;;;;;;22.40;54.40;;;;;;10413887;28;20032;-43
2023/09/15 03:26:23;;;;;;;;;;;22.40;54.30;;;;;;10392174;28;19934;-41
2023/09/15 03:31:25;;;;;;;;;;;22.40;54.30;;;;;;10392321;28;19933;-42
2023/09/15 03:36:29;;;;;;;;;;;22.40;54.20;;;;;;10392775;28;19941;-43
2023/09/15 03:41:31;;;;;;;;;;;22.40;54.20;;;;;;10389969;28;20040;-42
2023/09/15 03:46:32;;;;;;;;;;;22.40;54.20;;;;;;10394954;28;19952;-43
2023/09/15 03:51:34;;;;;;;;;;;22.40;54.20;;;;;;10383051;28;19933;-43
2023/09/15 03:56:36;;;;;;;;;;;22.40;54.00;;;;;;10384569;28;19933;-43
2023/09/15 04:01:38;;;;;;;;;;;22.40;54.00;;;;;;10390357;28;20115;-46
2023/09/15 04:06:41;;;;;;;;;;;22.40;54.20;;;;;;10386564;28;20405;-47
2023/09/15 04:11:43;;;;;;;;;;;22.40;54.00;;;;;;10381939;28;19933;-45
2023/09/15 04:16:44;;;;;;;;;;;22.40;54.10;;;;;;10381646;28;20183;-45
2023/09/15 04:21:46;;;;;;;;;;;22.40;54.10;;;;;;10382815;28;19977;-44
2023/09/15 04:26:48;;;;;;;;;;;22.40;53.80;;;;;;10391609;28;19933;-43
2023/09/15 04:31:50;;;;;;;;;;;22.40;54.00;;;;;;10390321;28;19934;-43
2023/09/15 04:36:53;;;;;;;;;;;22.40;53.80;;;;;;10385552;28;20032;-43
2023/09/15 04:41:55;;;;;;;;;;;22.40;53.80;;;;;;10398415;28;19934;-42
2023/09/15 04:52:12;;;;;;;;;;;22.30;53.90;;;;;;10396793;22;19934;-66
2023/09/15 04:57:14;;;;;;;;;;;22.30;53.90;;;;;;10389612;28;19933;-66
2023/09/15 05:02:15;;;;;;;;;;;22.30;53.50;;;;;;10393197;28;19933;-65
2023/09/15 05:07:17;;;;;;;;;;;22.30;53.80;;;;;;10390818;28;20098;-65
2023/09/15 05:12:20;;;;;;;;;;;22.20;54.20;;;;;;10385227;28;20012;-65
2023/09/15 05:17:22;;;;;;;;;;;22.20;54.20;;;;;;10375372;28;19933;-65
2023/09/15 05:22:24;;;;;;;;;;;22.20;54.30;;;;;;10387428;28;19933;-66
2023/09/15 05:27:26;;;;;;;;;;;22.20;54.20;;;;;;10393754;28;19956;-66
2023/09/15 05:32:28;;;;;;;;;;;22.20;54.30;;;;;;10395582;28;19941;-66
2023/09/15 05:37:30;;;;;;;;;;;22.20;54.10;;;;;;10395801;28;20055;-65
2023/09/15 05:42:31;;;;;;;;;;;22.20;54.20;;;;;;10385259;28;20957;-67
2023/09/15 05:47:33;;;;;;;;;;;22.20;54.20;;;;;;10392692;28;19940;-66
2023/09/15 05:52:35;;;;;;;;;;;22.10;54.30;;;;;;10388254;28;19967;-65
2023/09/15 05:57:37;;;;;;;;;;;22.10;54.50;;;;;;10375560;28;19934;-65
2023/09/15 06:02:38;;;;;;;;;;;22.10;54.20;;;;;;10388324;28;19984;-66
2023/09/15 06:07:41;;;;;;;;;;;22.10;54.50;;;;;;10380336;28;20160;-66
2023/09/15 06:12:43;;;;;;;;;;;22.10;55.10;;;;;;10383865;28;19934;-65
2023/09/15 06:17:45;;;;;;;;;;;22.10;55.00;;;;;;10380014;28;19945;-67
2023/09/15 06:22:47;;;;;;;;;;;22.20;54.80;;;;;;10387462;28;20113;-65
2023/09/15 06:27:49;;;;;;;;;;;22.10;55.00;;;;;;10383466;28;19933;-67
2023/09/15 06:32:52;;;;;;;;;;;22.10;56.00;;;;;;10372913;28;19934;-66
2023/09/15 06:37:53;;;;;;;;;;;22.20;55.60;;;;;;10382402;28;19933;-65
2023/09/15 06:42:55;;;;;;;;;;;22.20;55.40;;;;;;10378983;28;19977;-65
2023/09/15 06:47:59;;;;;;;;;;;22.10;55.30;;;;;;10372203;28;20060;-66
2023/09/15 06:53:01;;;;;;;;;;;22.10;55.10;;;;;;10372975;28;19933;-65
2023/09/15 06:58:02;;;;;;;;;;;22.10;55.20;;;;;;10379408;28;19933;-64
2023/09/15 07:03:04;;;;;;;;;;;22.00;55.10;;;;;;10366494;28;19933;-64
2023/09/15 07:08:06;;;;;;;;;;;22.00;55.10;;;;;;10387130;28;20008;-65
2023/09/15 07:13:08;;;;;;;;;;;22.00;55.20;;;;;;10377416;28;19954;-65
2023/09/15 07:18:10;;;;;;;;;;;22.00;55.20;;;;;;10381884;28;20290;-65
2023/09/15 07:23:12;;;;;;;;;;;22.00;55.30;;;;;;10382670;28;20199;-66
2023/09/15 07:28:13;;;;;;;;;;;22.00;56.10;;;;;;10379564;28;19933;-64
2023/09/15 07:33:15;;;;;;;;;;;22.00;56.10;;;;;;10383917;28;19934;-65
2023/09/15 07:38:17;;;;;;;;;;;21.90;55.90;;;;;;10379459;28;19933;-64
2023/09/15 07:43:19;;;;;;;;;;;21.90;55.90;;;;;;10366912;28;19934;-64
2023/09/15 07:48:22;;;;;;;;;;;21.90;55.90;;;;;;10378790;28;19941;-65
2023/09/15 07:53:24;;;;;;;;;;;21.90;56.00;;;;;;10367325;28;19941;-64
2023/09/15 07:58:25;;;;;;;;;;;21.90;56.30;;;;;;10380844;28;19940;-64
2023/09/15 08:03:28;;;;;;;;;;;21.90;56.10;;;;;;10374900;28;20131;-64
2023/09/15 08:08:30;;;;;;;;;;;21.90;56.20;;;;;;10387601;28;19934;-65
2023/09/15 08:13:31;;;;;;;;;;;21.90;56.20;;;;;;10378564;28;19940;-65
2023/09/15 08:18:33;;;;;;;;;;;21.90;56.30;;;;;;10381050;28;20397;-64
2023/09/15 08:23:35;;;;;;;;;;;21.90;56.40;;;;;;10387445;28;19933;-65
2023/09/15 08:28:36;;;;;;;;;;;21.90;56.50;;;;;;10376936;28;19934;-67
2023/09/15 08:33:38;;;;;;;;;;;21.90;56.80;;;;;;10373093;28;19933;-67
2023/09/15 08:38:41;;;;;;;;;;;21.90;56.90;;;;;;10379365;28;20343;-66
2023/09/15 08:43:43;;;;;;;;;;;21.90;57.00;;;;;;10393512;28;19941;-66
2023/09/15 08:48:49;;;;;;;;;;;21.90;57.10;;;;;;10380216;28;19933;-66
2023/09/15 08:53:57;;;;;;;;;;;21.90;57.20;;;;;;10376915;28;19933;-66
2023/09/15 08:58:59;;;;;;;;;;;21.90;57.20;;;;;;10375163;28;19933;-66
2023/09/15 09:04:01;;;;;;;;;;;22.00;57.20;;;;;;10381844;28;20451;-67
2023/09/15 09:09:04;;;;;;;;;;;22.00;57.20;;;;;;10376088;28;19933;-66
2023/09/15 09:14:11;;;;;;;;;;;22.10;57.10;;;;;;10373695;28;19933;-66
2023/09/15 09:19:13;;;;;;;;;;;22.10;57.10;;;;;;10371308;28;19973;-67
2023/09/15 09:24:15;;;;;;;;;;;22.10;56.90;;;;;;10382183;28;19934;-67
2023/09/15 09:29:21;;;;;;;;;;;22.10;56.70;;;;;;10383233;28;20191;-67
2023/09/15 09:34:24;;;;;;;;;;;22.20;56.80;;;;;;10383410;28;19941;-66
2023/09/15 09:39:46;;;;;;;;;;;22.30;56.70;;;;;;10372413;28;20605;-67
2023/09/15 09:44:48;;;;;;;;;;;22.30;56.30;;;;;;10388146;28;19934;-66
2023/09/15 09:49:52;;;;;;;;;;;22.40;56.30;;;;;;10389919;28;20028;-66
2023/09/15 09:54:53;;;;;;;;;;;22.50;56.00;;;;;;10388731;28;19934;-65
2023/09/15 09:59:55;;;;;;;;;;;22.60;55.70;;;;;;10386568;28;19933;-67
2023/09/15 10:04:57;;;;;;;;;;;22.60;55.60;;;;;;10375058;28;20085;-65
2023/09/15 10:09:59;;;;;;;;;;;22.70;55.40;;;;;;10384786;28;19933;-65
2023/09/15 10:15:02;;;;;;;;;;;22.80;56.30;;;;;;10389251;28;19934;-65
2023/09/15 10:20:05;;;;;;;;;;;22.80;55.30;;;;;;10377864;28;20039;-65
2023/09/15 10:25:15;;;;;;;;;;;22.90;55.30;;;;;;10375023;28;19934;-66
2023/09/15 10:30:17;;;;;;;;;;;22.90;56.20;;;;;;10382512;28;20203;-66
2023/09/15 10:35:22;;;;;;;;;;;22.90;55.10;;;;;;10388287;28;19933;-66
2023/09/15 10:40:24;;;;;;;;;;;22.90;55.10;;;;;;10386162;28;19933;-66
2023/09/15 10:45:25;;;;;;;;;;;22.90;55.10;;;;;;10385354;28;20047;-66
2023/09/15 10:50:32;;;;;;;;;;;23.00;55.10;;;;;;10384227;28;19934;-66
2023/09/15 10:55:34;;;;;;;;;;;23.00;55.00;;;;;;10389976;28;19941;-66
2023/09/15 11:00:38;;;;;;;;;;;23.00;55.00;;;;;;10370155;28;19934;-66
2023/09/15 11:05:40;;;;;;;;;;;22.90;54.90;;;;;;10356069;28;19933;-66
2023/09/15 11:10:42;;;;;;;;;;;23.00;55.00;;;;;;10387672;28;19934;-66
2023/09/15 11:15:46;;;;;;;;;;;23.00;55.10;;;;;;10385435;28;34491;-67
2023/09/15 11:20:48;;;;;;;;;;;23.00;55.00;;;;;;10376566;28;20408;-67
2023/09/15 11:26:04;;;;;;;;;;;23.00;55.00;;;;;;10387655;28;19984;-67
2023/09/15 11:31:26;;;;;;;;;;;23.00;55.10;;;;;;10374363;28;19996;-66
2023/09/15 11:36:32;;;;;;;;;;;23.00;55.20;;;;;;10366716;28;19972;-67
2023/09/15 11:41:35;;;;;;;;;;;23.00;55.20;;;;;;10387098;28;19969;-66
2023/09/15 11:46:38;;;;;;;;;;;23.00;55.30;;;;;;10372019;28;19933;-67
2023/09/15 11:51:40;;;;;;;;;;;23.00;55.60;;;;;;10389627;28;20238;-64
2023/09/15 11:56:42;;;;;;;;;;;23.00;56.70;;;;;;10383062;28;19934;-67
2023/09/15 12:01:48;;;;;;;;;;;23.00;57.20;;;;;;10358344;28;20516;-68
2023/09/15 12:06:52;;;;;;;;;;;23.10;56.70;;;;;;10380489;28;20393;-65
2023/09/15 12:11:54;;;;;;;;;;;23.10;56.50;;;;;;10373878;28;19933;-67
2023/09/15 12:16:57;;;;;;;;;;;23.10;56.60;;;;;;10381651;28;19940;-67
2023/09/15 12:21:59;;;;;;;;;;;23.10;56.40;;;;;;10386026;28;19934;-68
2023/09/15 12:27:02;;;;;;;;;;;23.10;56.50;;;;;;10384576;28;20403;-67
2023/09/15 12:32:07;;;;;;;;;;;23.10;56.60;;;;;;10390023;28;19934;-67
2023/09/15 12:37:09;;;;;;;;;;;23.10;56.50;;;;;;10385715;28;19934;-67
2023/09/15 12:42:11;;;;;;;;;;;23.00;56.40;;;;;;10387620;28;20238;-67
2023/09/15 12:47:16;;;;;;;;;;;23.00;56.40;;;;;;10386791;28;19965;-67
2023/09/15 12:52:17;;;;;;;;;;;23.00;56.50;;;;;;10372297;28;20578;-68
2023/09/15 12:57:22;;;;;;;;;;;23.00;56.60;;;;;;10400083;28;19933;-66
2023/09/15 13:02:24;;;;;;;;;;;23.00;56.40;;;;;;10395111;28;20496;-66
2023/09/15 13:07:26;;;;;;;;;;;23.00;56.40;;;;;;10395097;28;19933;-66
2023/09/15 13:12:27;;;;;;;;;;;23.00;56.50;;;;;;10389269;28;20618;-66
2023/09/15 13:17:29;;;;;;;;;;;23.00;56.60;;;;;;10391049;28;19965;-66
2023/09/15 13:22:31;;;;;;;;;;;23.00;56.60;;;;;;10387642;28;19934;-66
2023/09/15 13:27:33;;;;;;;;;;;23.00;56.80;;;;;;10393991;28;20301;-66
2023/09/15 13:32:35;;;;;;;;;;;23.00;57.00;;;;;;10385147;28;20902;-67
2023/09/15 13:37:37;;;;;;;;;;;23.00;57.20;;;;;;10396263;28;19940;-66
2023/09/15 13:42:38;;;;;;;;;;;23.00;57.30;;;;;;10383170;28;20938;-67
2023/09/15 13:47:41;;;;;;;;;;;23.10;57.50;;;;;;10395242;28;20668;-67
2023/09/15 13:52:42;;;;;;;;;;;23.00;57.50;;;;;;10393026;28;20344;-66
2023/09/15 13:57:44;;;;;;;;;;;23.10;57.70;;;;;;10382042;28;19945;-65
2023/09/15 14:02:46;;;;;;;;;;;23.00;57.70;;;;;;10365394;28;20381;-64
2023/09/15 14:07:50;;;;;;;;;;;23.10;58.50;;;;;;10388193;28;19934;-63
2023/09/15 14:12:53;;;;;;;;;;;23.10;58.50;;;;;;10386435;28;19940;-66
2023/09/15 14:17:54;;;;;;;;;;;23.10;58.70;;;;;;10382093;28;19934;-66
2023/09/15 14:22:57;;;;;;;;;;;23.20;58.80;;;;;;10393226;28;19934;-65
2023/09/15 14:27:59;;;;;;;;;;;23.20;58.90;;;;;;10391489;28;19933;-67
2023/09/15 14:33:00;;;;;;;;;;;23.20;58.90;;;;;;10385618;28;20024;-65
2023/09/15 14:38:02;;;;;;;;;;;23.20;59.90;;;;;;10384448;28;20084;-67
2023/09/15 14:43:04;;;;;;;;;;;23.20;59.90;;;;;;10388730;28;19933;-66
2023/09/15 14:48:05;;;;;;;;;;;23.30;60.30;;;;;;10379331;28;20772;-66
2023/09/15 14:53:08;;;;;;;;;;;23.30;61.20;;;;;;10376724;28;20721;-65
2023/09/15 14:58:09;;;;;;;;;;;23.30;60.00;;;;;;10381211;28;19934;-68
2023/09/15 15:03:11;;;;;;;;;;;23.40;60.20;;;;;;10381979;28;20311;-69
2023/09/15 15:08:13;;;;;;;;;;;23.40;60.00;;;;;;10384400;28;20316;-68
2023/09/15 15:13:15;;;;;;;;;;;23.30;58.90;;;;;;10368018;28;19941;-69
2023/09/15 15:18:17;;;;;;;;;;;23.30;58.40;;;;;;10376879;28;19934;-68
2023/09/15 15:23:21;;;;;;;;;;;23.20;57.90;;;;;;10382049;28;19934;-68
2023/09/15 15:28:23;;;;;;;;;;;23.20;57.80;;;;;;10386949;28;19941;-68
2023/09/15 15:33:25;;;;;;;;;;;23.20;57.80;;;;;;10382322;28;19933;-66
2023/09/15 15:38:28;;;;;;;;;;;23.20;58.30;;;;;;10385649;28;20994;-69
2023/09/15 15:43:30;;;;;;;;;;;23.20;57.90;;;;;;10382151;28;19933;-66
2023/09/15 15:48:33;;;;;;;;;;;23.20;59.20;;;;;;10376313;28;20511;-68
2023/09/15 15:53:36;;;;;;;;;;;23.30;59.10;;;;;;10387010;28;19933;-68
2023/09/15 15:58:38;;;;;;;;;;;23.30;58.70;;;;;;10368064;28;20040;-68
2023/09/15 16:03:39;;;;;;;;;;;23.30;58.40;;;;;;10373176;28;19944;-68
2023/09/15 16:08:41;;;;;;;;;;;23.20;58.10;;;;;;10379212;28;19941;-67
2023/09/15 16:13:43;;;;;;;;;;;23.20;58.20;;;;;;10375944;28;20024;-69
2023/09/15 16:18:44;;;;;;;;;;;23.20;58.20;;;;;;10374090;28;20301;-68
2023/09/15 16:23:46;;;;;;;;;;;23.20;58.30;;;;;;10371906;28;19944;-69
2023/09/15 16:28:48;;;;;;;;;;;23.20;58.40;;;;;;10379821;28;19934;-67
2023/09/15 16:33:52;;;;;;;;;;;23.10;59.10;;;;;;10382020;28;19933;-72
2023/09/15 16:38:56;;;;;;;;;;;23.20;58.90;;;;;;10368596;28;19941;-72
2023/09/15 16:44:00;;;;;;;;;;;23.20;59.00;;;;;;10365477;28;19934;-66
2023/09/15 16:49:02;;;;;;;;;;;23.40;60.30;;;;;;10369267;28;19933;-68
2023/09/15 16:54:03;;;;;;;;;;;23.50;58.30;;;;;;10368690;28;19933;-67
2023/09/15 16:59:05;;;;;;;;;;;23.50;61.00;;;;;;10371400;28;20028;-67
2023/09/15 17:04:07;;;;;;;;;;;23.60;61.20;;;;;;10363074;28;19940;-68
2023/09/15 17:09:08;;;;;;;;;;;23.90;61.50;;;;;;10371754;28;19941;-66
2023/09/15 17:14:11;;;;;;;;;;;24.00;58.30;;;;;;10385951;28;20600;-66
2023/09/15 17:19:13;;;;;;;;;;;24.20;58.00;;;;;;10371743;28;19934;-66
2023/09/15 17:24:14;;;;;;;;;;;24.00;56.90;;;;;;10374091;28;19940;-69
2023/09/15 17:29:16;;;;;;;;;;;23.80;57.80;;;;;;10363646;28;19960;-68
2023/09/15 17:34:19;;;;;;;;;;;23.60;57.80;;;;;;10384554;28;19934;-67
2023/09/15 17:39:22;;;;;;;;;;;23.50;57.90;;;;;;10376685;28;20016;-67
2023/09/15 17:44:25;;;;;;;;;;;23.40;58.20;;;;;;10383017;28;20364;-66
2023/09/15 17:49:28;;;;;;;;;;;23.20;57.90;;;;;;10390944;28;20349;-67
2023/09/15 17:54:29;;;;;;;;;;;23.10;58.50;;;;;;10383572;28;19940;-68
2023/09/15 17:59:31;;;;;;;;;;;23.20;58.80;;;;;;10390092;28;19984;-68
2023/09/15 18:04:33;;;;;;;;;;;23.20;58.80;;;;;;10385004;28;19933;-68
2023/09/15 18:09:35;;;;;;;;;;;23.20;59.00;;;;;;10382352;28;19964;-67
2023/09/15 18:14:37;;;;;;;;;;;23.20;59.20;;;;;;10388939;28;20027;-69
2023/09/15 18:19:40;;;;;;;;;;;23.20;59.40;;;;;;10370127;28;20225;-68
2023/09/15 18:24:42;;;;;;;;;;;23.20;59.50;;;;;;10386024;28;20027;-68
2023/09/15 18:29:43;;;;;;;;;;;23.20;59.60;;;;;;10365365;28;19933;-67
2023/09/15 18:34:45;;;;;;;;;;;23.20;59.80;;;;;;10369649;28;19981;-66
2023/09/15 18:39:47;;;;;;;;;;;23.20;59.90;;;;;;10391419;28;20309;-66
2023/09/15 18:44:50;;;;;;;;;;;23.30;61.40;;;;;;10387005;28;19940;-71
2023/09/15 18:49:53;;;;;;;;;;;23.30;61.30;;;;;;10378850;28;20300;-67
2023/09/15 18:54:56;;;;;;;;;;;23.30;62.00;;;;;;10386895;28;20037;-64
2023/09/15 19:00:04;;;;;;;;;;;23.40;61.60;;;;;;10378666;28;19941;-66
2023/09/15 19:05:08;;;;;;;;;;;23.30;61.90;;;;;;10381025;28;19934;-66
2023/09/15 19:10:10;;;;;;;;;;;23.30;61.90;;;;;;10373669;28;19933;-66
2023/09/15 19:15:12;;;;;;;;;;;23.20;61.60;;;;;;10363826;28;20578;-65
2023/09/15 19:20:14;;;;;;;;;;;23.20;61.80;;;;;;10382426;28;19934;-65
2023/09/15 19:25:16;;;;;;;;;;;23.20;61.40;;;;;;10373951;28;19939;-65
2023/09/15 19:30:18;;;;;;;;;;;23.10;61.30;;;;;;10375168;28;19963;-66
2023/09/15 19:35:21;;;;;;;;;;;23.10;61.30;;;;;;10377490;28;19934;-65
2023/09/15 19:40:23;;;;;;;;;;;23.10;61.30;;;;;;10392540;28;19940;-65
2023/09/15 19:45:25;;;;;;;;;;;23.10;61.40;;;;;;10386362;28;19933;-65
2023/09/15 19:50:28;;;;;;;;;;;23.10;61.40;;;;;;10370319;28;19960;-65
2023/09/15 19:55:31;;;;;;;;;;;23.10;61.50;;;;;;10371775;28;19937;-65
2023/09/15 20:00:32;;;;;;;;;;;23.10;61.30;;;;;;10386610;28;20467;-65
2023/09/15 20:05:34;;;;;;;;;;;23.10;61.50;;;;;;10382401;28;19938;-65
2023/09/15 20:10:36;;;;;;;;;;;23.10;61.70;;;;;;10368320;28;19934;-66
2023/09/15 20:15:39;;;;;;;;;;;23.10;61.50;;;;;;10374066;28;20020;-66
2023/09/15 20:20:41;;;;;;;;;;;23.00;61.60;;;;;;10377860;28;19945;-63
2023/09/15 20:25:48;;;;;;;;;;;23.10;61.90;;;;;;10393274;28;19940;-63
2023/09/15 20:30:52;;;;;;;;;;;23.10;61.50;;;;;;10385297;28;19933;-64
2023/09/15 20:35:55;;;;;;;;;;;23.10;61.50;;;;;;10391393;28;19933;-63
2023/09/15 20:40:58;;;;;;;;;;;23.10;61.50;;;;;;10388969;28;20044;-64
2023/09/15 20:46:00;;;;;;;;;;;23.10;61.40;;;;;;10384759;28;20042;-64
2023/09/15 20:51:02;;;;;;;;;;;23.00;61.30;;;;;;10365283;28;19940;-63
2023/09/15 20:56:04;;;;;;;;;;;23.00;61.30;;;;;;10386021;28;19941;-64
2023/09/15 21:01:09;;;;;;;;;;;23.00;61.20;;;;;;10356824;28;20294;-63
2023/09/15 21:06:11;;;;;;;;;;;23.00;61.30;;;;;;10382776;28;20153;-63
2023/09/15 21:11:13;;;;;;;;;;;23.00;61.30;;;;;;10397902;28;19934;-64
2023/09/15 21:16:15;;;;;;;;;;;22.90;61.20;;;;;;10390008;28;19977;-64
2023/09/15 21:21:17;;;;;;;;;;;22.90;61.40;;;;;;10376086;28;20177;-62
2023/09/15 21:26:20;;;;;;;;;;;22.90;61.20;;;;;;10393075;28;19934;-63
2023/09/15 21:31:22;;;;;;;;;;;22.90;61.40;;;;;;10397921;28;19941;-64
2023/09/15 21:36:24;;;;;;;;;;;22.90;61.40;;;;;;10383129;28;20012;-63
2023/09/15 21:41:27;;;;;;;;;;;22.80;61.30;;;;;;10388207;28;19939;-63
2023/09/15 21:46:29;;;;;;;;;;;22.80;61.30;;;;;;10392537;28;20385;-64
2023/09/15 21:51:30;;;;;;;;;;;22.80;61.40;;;;;;10370506;28;19934;-63
2023/09/15 21:56:32;;;;;;;;;;;22.80;61.30;;;;;;10385479;28;19933;-63
2023/09/15 22:01:34;;;;;;;;;;;22.80;61.30;;;;;;10397022;28;20040;-63
2023/09/15 22:06:36;;;;;;;;;;;22.80;61.30;;;;;;10391269;28;20356;-67
2023/09/15 22:11:38;;;;;;;;;;;22.80;61.40;;;;;;10386191;28;19968;-67
2023/09/15 22:16:39;;;;;;;;;;;22.80;61.40;;;;;;10383868;28;20008;-67
2023/09/15 22:21:41;;;;;;;;;;;22.80;61.40;;;;;;10386025;28;19959;-67
2023/09/15 22:26:43;;;;;;;;;;;22.70;61.30;;;;;;10390333;28;20969;-67
2023/09/15 22:31:45;;;;;;;;;;;22.70;61.40;;;;;;10386876;28;20401;-67
2023/09/15 22:36:46;;;;;;;;;;;22.70;61.40;;;;;;10394442;28;20325;-67
2023/09/15 22:41:48;;;;;;;;;;;22.70;61.30;;;;;;10389467;28;19942;-67
2023/09/15 22:46:52;;;;;;;;;;;22.70;61.40;;;;;;10384380;28;20403;-67
2023/09/15 22:51:54;;;;;;;;;;;22.70;61.40;;;;;;10381259;28;20428;-68
2023/09/15 22:56:57;;;;;;;;;;;22.70;61.40;;;;;;10381831;28;19963;-67
2023/09/15 23:01:59;;;;;;;;;;;22.70;61.30;;;;;;10385709;28;20401;-67
2023/09/15 23:07:01;;;;;;;;;;;22.70;61.40;;;;;;10373685;28;19940;-63
2023/09/15 23:12:09;;;;;;;;;;;22.70;61.40;;;;;;10397497;28;20115;-63
2023/09/15 23:17:11;;;;;;;;;;;22.70;61.40;;;;;;10388475;28;19975;-65
2023/09/15 23:22:13;;;;;;;;;;;22.70;61.30;;;;;;10389926;28;20822;-63
2023/09/15 23:27:16;;;;;;;;;;;22.60;61.30;;;;;;10389049;28;20441;-63
2023/09/15 23:32:18;;;;;;;;;;;22.70;61.40;;;;;;10378135;28;19941;-64
2023/09/15 23:37:21;;;;;;;;;;;22.70;61.40;;;;;;10376165;28;20068;-63
2023/09/15 23:42:24;;;;;;;;;;;22.70;61.30;;;;;;10379093;28;19938;-64
2023/09/15 23:47:25;;;;;;;;;;;22.70;61.20;;;;;;10384110;28;19933;-63
2023/09/15 23:52:28;;;;;;;;;;;22.70;61.30;;;;;;10307387;28;1809554;-62
2023/09/15 23:57:30;;;;;;;;;;;22.70;61.30;;;;;;10369294;28;19940;-63
